Time;durP1;ratioP1;P1;durP2;ratioP2;P2;SDS_P1;SDS_P2;PMS_P1;PMS_P2;Temp;Humidity;BMP_temperature;BMP_pressure;BME280_temperature;BME280_humidity;BME280_pressure;Samples;Min_cycle;Max_cycle;Signal;HPM_P1;HPM_P2
2021/12/15 00:00:09;;;;;;;52.08;19.45;;;10.10;99.90;;;;;;5117132;28;20442;-65
2021/12/15 00:02:35;;;;;;;44.28;17.45;;;10.10;99.90;;;;;;5141214;27;20096;-64
2021/12/15 00:05:01;;;;;;;48.00;18.90;;;10.10;99.90;;;;;;5130201;28;20043;-65
2021/12/15 00:07:27;;;;;;;47.22;17.90;;;10.10;99.90;;;;;;5125395;28;20039;-65
2021/12/15 00:09:53;;;;;;;37.70;17.27;;;10.10;99.90;;;;;;5126138;27;20042;-65
2021/12/15 00:12:20;;;;;;;53.45;18.58;;;10.10;99.90;;;;;;5142332;27;20494;-65
2021/12/15 00:14:46;;;;;;;45.67;18.88;;;10.10;99.90;;;;;;5142746;27;20127;-65
2021/12/15 00:17:13;;;;;;;40.45;17.23;;;10.10;99.90;;;;;;5141618;27;20620;-65
2021/12/15 00:19:39;;;;;;;38.90;17.95;;;10.10;99.90;;;;;;5134879;27;20043;-65
2021/12/15 00:22:06;;;;;;;47.72;18.00;;;10.10;99.90;;;;;;5110093;27;20054;-65
2021/12/15 00:24:32;;;;;;;46.13;19.58;;;10.10;99.90;;;;;;5136219;27;20631;-65
2021/12/15 00:26:57;;;;;;;49.08;17.10;;;10.20;99.90;;;;;;5125314;27;20055;-65
2021/12/15 00:29:24;;;;;;;38.13;18.38;;;10.10;99.90;;;;;;5134967;27;20127;-65
2021/12/15 00:31:51;;;;;;;58.35;19.02;;;10.20;99.90;;;;;;5137652;27;20709;-65
2021/12/15 00:34:18;;;;;;;44.83;18.77;;;10.20;99.90;;;;;;5140183;27;20050;-65
2021/12/15 00:36:44;;;;;;;39.22;17.63;;;10.20;99.90;;;;;;5132275;27;20545;-65
2021/12/15 00:39:11;;;;;;;46.13;16.80;;;10.10;99.90;;;;;;5136202;27;20050;-65
2021/12/15 00:41:37;;;;;;;44.30;17.92;;;10.20;99.90;;;;;;5141726;27;20043;-65
2021/12/15 00:44:03;;;;;;;36.83;16.52;;;10.20;99.90;;;;;;5115022;27;20039;-65
2021/12/15 00:46:29;;;;;;;46.90;18.90;;;10.20;99.90;;;;;;5124893;27;20039;-65
2021/12/15 00:48:55;;;;;;;42.13;17.52;;;10.20;99.90;;;;;;5131780;27;20041;-65
2021/12/15 00:51:20;;;;;;;39.28;16.38;;;10.20;99.90;;;;;;5137459;27;20058;-65
2021/12/15 00:53:46;;;;;;;38.53;16.52;;;10.20;99.90;;;;;;5118229;27;20552;-65
2021/12/15 00:56:12;;;;;;;42.28;17.15;;;10.20;99.90;;;;;;5140510;27;20043;-65
2021/12/15 00:58:38;;;;;;;42.15;17.27;;;10.20;99.90;;;;;;5126609;27;20050;-65
2021/12/15 01:01:04;;;;;;;41.15;18.48;;;10.20;99.90;;;;;;5131298;27;20047;-65
2021/12/15 01:03:31;;;;;;;39.60;18.20;;;10.20;99.90;;;;;;5133364;27;20074;-65
2021/12/15 01:06:04;;;;;;;56.40;19.58;;;10.20;99.90;;;;;;5141718;27;20043;-65
2021/12/15 01:08:30;;;;;;;;;;;10.20;99.90;;;;;;5130587;27;20039;-65
2021/12/15 01:11:16;;;;;;;46.92;19.33;;;10.20;99.90;;;;;;5144267;27;20017;-65
2021/12/15 01:22:04;;;;;;;46.20;20.25;;;10.20;99.90;;;;;;5113939;27;20545;-65
2021/12/15 01:24:30;;;;;;;44.03;19.23;;;10.20;99.90;;;;;;5139232;27;20401;-65
2021/12/15 01:26:56;;;;;;;48.47;19.92;;;10.20;99.90;;;;;;5138063;27;20058;-65
2021/12/15 01:29:22;;;;;;;40.47;19.95;;;10.20;99.90;;;;;;5142102;27;20051;-65
2021/12/15 01:31:48;;;;;;;46.25;22.95;;;10.20;99.90;;;;;;5138262;27;20087;-63
2021/12/15 01:34:14;;;;;;;47.85;20.08;;;10.20;99.90;;;;;;5113209;27;20138;-63
2021/12/15 01:36:40;;;;;;;48.92;21.23;;;10.20;99.90;;;;;;5124541;27;20039;-63
2021/12/15 01:39:05;;;;;;;45.30;22.35;;;10.20;99.90;;;;;;5138769;27;20121;-63
2021/12/15 01:41:31;;;;;;;56.30;23.60;;;10.20;99.90;;;;;;5132482;27;20039;-63
2021/12/15 01:49:21;;;;;;;58.40;24.90;;;10.20;99.90;;;;;;5127027;27;20409;-63
2021/12/15 01:51:47;;;;;;;53.50;25.83;;;10.20;99.90;;;;;;5130137;27;20076;-63
2021/12/15 01:54:14;;;;;;;56.33;24.52;;;10.20;99.90;;;;;;5119654;27;20415;-62
2021/12/15 01:56:40;;;;;;;59.80;25.90;;;10.20;99.90;;;;;;5117395;27;20701;-63
2021/12/15 01:59:07;;;;;;;57.42;28.50;;;10.20;99.90;;;;;;5133239;27;20082;-63
2021/12/15 02:01:32;;;;;;;56.40;27.27;;;10.20;99.90;;;;;;5132172;27;20437;-63
2021/12/15 02:03:58;;;;;;;52.63;26.00;;;10.20;99.90;;;;;;5130076;27;20047;-63
2021/12/15 02:06:25;;;;;;;63.80;28.38;;;10.20;99.90;;;;;;5129020;27;20035;-63
2021/12/15 02:08:52;;;;;;;62.50;26.33;;;10.20;99.90;;;;;;5142661;27;20046;-63
2021/12/15 02:11:17;;;;;;;58.85;26.13;;;10.20;99.90;;;;;;5132736;27;21018;-63
2021/12/15 02:13:43;;;;;;;58.13;27.80;;;10.20;99.90;;;;;;5122209;27;20195;-63
2021/12/15 02:16:10;;;;;;;57.15;25.58;;;10.20;99.90;;;;;;5109631;27;20035;-63
2021/12/15 02:18:41;;;;;;;55.88;27.70;;;10.20;99.90;;;;;;5127450;27;20058;-63
2021/12/15 02:21:11;;;;;;;53.53;27.00;;;10.20;99.90;;;;;;5143491;27;20402;-63
2021/12/15 02:23:43;;;;;;;53.80;24.85;;;10.10;99.90;;;;;;5126167;27;20070;-63
2021/12/15 02:26:14;;;;;;;54.75;26.10;;;10.10;99.90;;;;;;5131697;27;20042;-63
2021/12/15 02:28:44;;;;;;;58.67;25.42;;;10.10;99.90;;;;;;5129797;27;20486;-63
2021/12/15 02:31:33;;;;;;;61.47;27.08;;;10.10;99.90;;;;;;5123612;27;20036;-63
2021/12/15 02:34:21;;;;;;;51.47;24.52;;;10.20;99.90;;;;;;5134641;27;20055;-63
2021/12/15 02:37:22;;;;;;;54.25;25.40;;;10.10;99.90;;;;;;5137810;27;20506;-63
2021/12/15 02:39:41;;;;;;;58.03;26.48;;;10.10;99.90;;;;;;5126321;27;20104;-63
2021/12/15 02:42:07;;;;;;;52.92;24.55;;;10.10;99.90;;;;;;5117377;27;20039;-63
2021/12/15 02:44:33;;;;;;;51.88;24.95;;;10.10;99.90;;;;;;5107632;27;20600;-63
2021/12/15 02:46:59;;;;;;;56.05;23.98;;;10.10;99.90;;;;;;5123207;27;20035;-63
2021/12/15 02:49:27;;;;;;;53.90;25.42;;;10.10;99.90;;;;;;5140573;27;20035;-63
2021/12/15 02:51:54;;;;;;;53.17;25.38;;;10.10;99.90;;;;;;5120102;27;20122;-63
2021/12/15 02:54:21;;;;;;;48.03;24.40;;;10.10;99.90;;;;;;5131058;27;20413;-63
2021/12/15 02:56:50;;;;;;;53.33;25.60;;;10.10;99.90;;;;;;5132699;27;20035;-62
2021/12/15 02:59:21;;;;;;;54.83;28.20;;;10.10;99.90;;;;;;5123035;27;20121;-63
2021/12/15 03:05:05;;;;;;;60.75;26.45;;;10.10;99.90;;;;;;5141605;27;20187;-62
2021/12/15 03:07:31;;;;;;;53.60;25.40;;;10.10;99.90;;;;;;5121359;27;20073;-63
2021/12/15 03:18:13;;;;;;;64.72;27.45;;;10.00;99.90;;;;;;5127672;27;20074;-63
2021/12/15 03:20:46;;;;;;;54.22;27.40;;;10.00;99.90;;;;;;5138601;27;20065;-63
2021/12/15 03:23:14;;;;;;;68.10;27.23;;;10.00;99.90;;;;;;5118358;27;20035;-62
2021/12/15 03:25:40;;;;;;;60.17;29.27;;;10.00;99.90;;;;;;5129203;27;20066;-63
2021/12/15 03:33:57;;;;;;;61.88;27.48;;;10.00;99.90;;;;;;5095951;28;20059;-62
2021/12/15 03:36:51;;;;;;;56.33;27.77;;;9.90;99.90;;;;;;5097527;28;20047;-63
2021/12/15 03:39:17;;;;;;;68.70;28.40;;;9.90;99.90;;;;;;5103231;28;20594;-62
2021/12/15 03:41:43;;;;;;;56.30;28.75;;;9.90;99.90;;;;;;5108594;28;20142;-63
2021/12/15 03:44:08;;;;;;;61.55;28.25;;;9.80;99.90;;;;;;5091995;28;20592;-63
2021/12/15 03:46:34;;;;;;;61.10;29.55;;;9.80;99.90;;;;;;5097760;28;20131;-63
2021/12/15 03:49:00;;;;;;;55.83;27.83;;;9.80;99.90;;;;;;5096718;28;20048;-62
2021/12/15 03:51:26;;;;;;;57.00;29.05;;;9.80;99.90;;;;;;5109390;28;20055;-63
2021/12/15 03:53:52;;;;;;;46.67;27.90;;;9.80;99.90;;;;;;5108661;28;20047;-62
2021/12/15 03:56:17;;;;;;;56.42;27.23;;;9.80;99.90;;;;;;5094394;28;20126;-63
2021/12/15 03:58:45;;;;;;;56.17;27.60;;;9.80;99.90;;;;;;5105546;28;20079;-63
2021/12/15 04:01:17;;;;;;;58.67;27.58;;;9.80;99.90;;;;;;5106808;28;20048;-63
2021/12/15 04:03:46;;;;;;;53.38;26.45;;;9.80;99.90;;;;;;5109775;28;20063;-63
2021/12/15 04:06:18;;;;;;;61.35;27.67;;;9.80;99.90;;;;;;5104218;28;20122;-63
2021/12/15 04:08:43;;;;;;;59.67;26.55;;;9.80;99.90;;;;;;5103710;28;20490;-63
2021/12/15 04:11:13;;;;;;;52.38;26.67;;;9.80;99.90;;;;;;5110421;28;20053;-63
2021/12/15 04:13:40;;;;;;;44.75;26.42;;;9.80;99.90;;;;;;5106902;28;20058;-63
2021/12/15 04:16:08;;;;;;;54.60;25.70;;;9.80;99.90;;;;;;5109567;28;20068;-63
2021/12/15 04:18:36;;;;;;;58.03;27.08;;;9.80;99.90;;;;;;5098024;28;20052;-63
2021/12/15 04:21:03;;;;;;;50.75;25.02;;;9.80;99.90;;;;;;5100703;28;20052;-63
2021/12/15 04:23:29;;;;;;;49.38;25.17;;;9.80;99.90;;;;;;5102141;28;20051;-63
2021/12/15 04:25:58;;;;;;;51.13;26.23;;;9.80;99.90;;;;;;5106695;28;20032;-63
2021/12/15 04:28:27;;;;;;;55.05;26.52;;;9.90;99.90;;;;;;5112142;28;20206;-63
2021/12/15 04:30:59;;;;;;;51.63;26.50;;;9.80;99.90;;;;;;5123950;27;20449;-63
2021/12/15 04:33:37;;;;;;;50.17;24.55;;;9.80;99.90;;;;;;5125121;27;20126;-63
2021/12/15 04:36:09;;;;;;;56.85;26.15;;;9.80;99.90;;;;;;5106321;27;20085;-63
2021/12/15 04:38:36;;;;;;;54.88;25.52;;;9.80;99.90;;;;;;5121489;27;20528;-63
2021/12/15 04:41:06;;;;;;;49.67;26.77;;;9.80;99.90;;;;;;5130124;27;20497;-63
2021/12/15 04:43:34;;;;;;;46.53;24.40;;;9.80;99.90;;;;;;5119919;27;20114;-63
2021/12/15 04:46:03;;;;;;;53.10;25.85;;;9.80;99.90;;;;;;5112609;27;20049;-63
2021/12/15 04:48:29;;;;;;;55.15;28.40;;;9.80;99.90;;;;;;5141306;27;20088;-63
2021/12/15 04:50:55;;;;;;;52.08;27.88;;;9.80;99.90;;;;;;5137036;27;20046;-64
2021/12/15 04:53:21;;;;;;;46.72;23.45;;;9.80;99.90;;;;;;5146191;27;20107;-63
2021/12/15 04:55:46;;;;;;;46.25;24.35;;;9.80;99.90;;;;;;5132661;27;20447;-63
2021/12/15 04:58:13;;;;;;;53.55;24.75;;;9.80;99.90;;;;;;5125209;27;20036;-63
2021/12/15 05:00:44;;;;;;;50.63;24.38;;;9.80;99.90;;;;;;5141574;27;20038;-63
2021/12/15 05:03:10;;;;;;;46.25;23.17;;;9.80;99.90;;;;;;5113480;27;20495;-63
2021/12/15 05:05:37;;;;;;;45.00;22.92;;;9.80;99.90;;;;;;5136486;27;20046;-63
2021/12/15 05:08:04;;;;;;;49.42;24.65;;;9.80;99.90;;;;;;5140897;27;20039;-63
2021/12/15 05:10:30;;;;;;;48.50;23.70;;;9.80;99.90;;;;;;5133154;27;20050;-63
2021/12/15 05:12:57;;;;;;;50.47;22.58;;;9.80;99.90;;;;;;5129594;27;20027;-63
2021/12/15 05:15:24;;;;;;;46.90;21.77;;;9.80;99.90;;;;;;5141371;27;20068;-63
2021/12/15 05:17:49;;;;;;;41.92;22.10;;;9.80;99.90;;;;;;5132780;27;20051;-63
2021/12/15 05:20:15;;;;;;;45.30;21.63;;;9.80;99.90;;;;;;5144957;27;20053;-63
2021/12/15 05:22:41;;;;;;;38.33;20.65;;;9.80;99.90;;;;;;5133114;27;20055;-63
2021/12/15 05:25:07;;;;;;;39.00;21.13;;;9.80;99.90;;;;;;5131629;27;20039;-63
2021/12/15 05:27:33;;;;;;;52.25;22.25;;;9.80;99.90;;;;;;5128835;27;20075;-63
2021/12/15 05:29:59;;;;;;;46.00;20.20;;;9.90;99.90;;;;;;5123407;27;20368;-63
2021/12/15 05:32:25;;;;;;;47.97;19.75;;;9.90;99.90;;;;;;5109750;27;20099;-63
2021/12/15 05:34:57;;;;;;;41.92;19.25;;;9.90;99.90;;;;;;5116679;27;20052;-63
2021/12/15 05:37:22;;;;;;;50.20;19.85;;;9.90;99.90;;;;;;5129192;27;20465;-63
2021/12/15 05:39:50;;;;;;;41.25;18.98;;;9.90;99.90;;;;;;5124773;27;20044;-63
2021/12/15 05:42:17;;;;;;;49.97;22.08;;;9.90;99.90;;;;;;5143132;27;20039;-63
2021/12/15 05:44:43;;;;;;;41.42;18.73;;;9.90;99.90;;;;;;5131876;27;20386;-63
2021/12/15 05:47:09;;;;;;;41.10;18.98;;;9.90;99.90;;;;;;5136455;27;20043;-64
2021/12/15 05:49:36;;;;;;;38.53;17.45;;;9.90;99.90;;;;;;5131876;27;20094;-63
2021/12/15 05:52:02;;;;;;;33.67;15.95;;;9.90;99.90;;;;;;5133875;27;20047;-63
2021/12/15 05:54:29;;;;;;;33.42;16.83;;;9.90;99.90;;;;;;5135973;27;20047;-63
2021/12/15 05:56:55;;;;;;;38.83;14.75;;;9.90;99.90;;;;;;5128917;27;20047;-63
2021/12/15 05:59:20;;;;;;;26.75;14.20;;;10.00;99.90;;;;;;5114790;27;20502;-64
2021/12/15 06:01:47;;;;;;;42.47;16.58;;;10.00;99.90;;;;;;5149523;27;20073;-63
2021/12/15 06:04:13;;;;;;;41.95;16.15;;;10.00;99.90;;;;;;5129421;27;20039;-63
2021/12/15 06:06:39;;;;;;;40.42;15.82;;;10.00;99.90;;;;;;5145514;27;20691;-63
2021/12/15 06:09:06;;;;;;;36.45;15.07;;;10.00;99.90;;;;;;5130993;27;20039;-63
2021/12/15 06:11:32;;;;;;;44.78;17.60;;;10.00;99.90;;;;;;5128167;27;20184;-63
2021/12/15 06:13:57;;;;;;;37.78;17.23;;;10.00;99.90;;;;;;5106574;27;20193;-63
2021/12/15 06:16:23;;;;;;;43.13;17.20;;;10.00;99.90;;;;;;5118464;27;20038;-63
2021/12/15 06:18:50;;;;;;;44.95;19.02;;;10.00;99.90;;;;;;5107275;27;20042;-63
2021/12/15 06:21:17;;;;;;;48.38;19.73;;;10.00;99.90;;;;;;5132121;27;20043;-63
2021/12/15 06:23:44;;;;;;;40.88;17.80;;;10.00;99.90;;;;;;5130421;27;20051;-63
2021/12/15 06:26:10;;;;;;;43.03;18.02;;;10.00;99.90;;;;;;5130799;27;20043;-63
2021/12/15 06:28:37;;;;;;;37.45;16.38;;;10.00;99.90;;;;;;5137573;27;20043;-63
2021/12/15 06:31:06;;;;;;;42.22;15.88;;;10.00;99.90;;;;;;5129594;27;20055;-63
2021/12/15 06:33:33;;;;;;;41.28;16.17;;;10.10;99.90;;;;;;5131055;27;20051;-63
2021/12/15 06:36:00;;;;;;;37.28;15.27;;;10.10;99.90;;;;;;5113849;27;20079;-63
2021/12/15 06:38:30;;;;;;;31.15;14.70;;;10.10;99.90;;;;;;5139184;27;20083;-63
2021/12/15 06:40:57;;;;;;;36.15;13.85;;;10.10;99.90;;;;;;5136253;27;20074;-64
2021/12/15 06:43:24;;;;;;;31.42;15.73;;;10.10;99.90;;;;;;5125389;27;20050;-63
2021/12/15 06:46:34;;;;;;;41.25;15.48;;;10.10;99.90;;;;;;5117726;27;20121;-63
2021/12/15 06:59:51;;;;;;;35.10;14.15;;;10.10;99.90;;;;;;5134387;27;20110;-63
2021/12/15 07:02:17;;;;;;;40.15;15.32;;;10.10;99.90;;;;;;5130742;27;20035;-63
2021/12/15 07:04:42;;;;;;;25.90;12.88;;;10.10;99.90;;;;;;5119262;27;20046;-63
2021/12/15 07:07:08;;;;;;;35.83;13.25;;;10.10;99.90;;;;;;5118815;27;20043;-63
2021/12/15 07:09:34;;;;;;;27.48;12.95;;;10.10;99.90;;;;;;5137225;27;20042;-63
2021/12/15 07:12:02;;;;;;;26.90;12.07;;;10.10;99.90;;;;;;5144437;27;20051;-63
2021/12/15 07:14:28;;;;;;;26.63;12.60;;;10.10;99.90;;;;;;5106074;27;20039;-63
2021/12/15 07:16:55;;;;;;;30.17;11.50;;;10.10;99.90;;;;;;5130240;27;20039;-63
2021/12/15 07:24:38;;;;;;;22.13;8.70;;;10.00;99.90;;;;;;5132046;27;20047;-63
2021/12/15 07:27:05;;;;;;;28.00;9.27;;;10.00;99.90;;;;;;5108198;27;20085;-63
2021/12/15 07:29:31;;;;;;;17.55;8.38;;;10.00;99.90;;;;;;5134139;27;20429;-63
2021/12/15 07:31:58;;;;;;;24.80;9.85;;;10.00;99.90;;;;;;5134685;27;20079;-63
2021/12/15 07:34:24;;;;;;;24.83;7.90;;;10.00;99.90;;;;;;5126540;27;20078;-63
2021/12/15 07:36:49;;;;;;;25.65;9.25;;;10.00;99.90;;;;;;5136664;27;20074;-63
2021/12/15 07:39:16;;;;;;;16.95;8.43;;;10.00;99.90;;;;;;5131098;27;20088;-63
2021/12/15 07:41:52;;;;;;;19.20;8.82;;;10.00;99.90;;;;;;5120688;27;20047;-63
2021/12/15 07:44:19;;;;;;;18.02;7.75;;;10.10;99.90;;;;;;5127979;27;20457;-64
2021/12/15 07:46:48;;;;;;;26.75;7.55;;;10.00;99.90;;;;;;5124192;27;20035;-63
2021/12/15 07:49:14;;;;;;;33.13;7.68;;;10.00;99.90;;;;;;5125952;27;20035;-63
2021/12/15 07:51:43;;;;;;;22.20;9.15;;;10.10;99.90;;;;;;5118567;27;20450;-63
2021/12/15 07:54:10;;;;;;;21.83;8.32;;;10.10;99.90;;;;;;5135032;27;20051;-64
2021/12/15 07:56:35;;;;;;;33.45;7.63;;;10.00;99.90;;;;;;5136852;27;20126;-64
2021/12/15 07:59:01;;;;;;;13.90;6.93;;;10.00;99.90;;;;;;5129006;27;20573;-63
2021/12/15 08:01:26;;;;;;;22.63;7.60;;;10.10;99.90;;;;;;5120002;27;20058;-64
2021/12/15 08:03:54;;;;;;;18.35;7.80;;;10.00;99.90;;;;;;5114108;27;20035;-64
2021/12/15 08:06:24;;;;;;;20.15;7.18;;;10.10;99.90;;;;;;5117239;27;20459;-63
2021/12/15 08:08:51;;;;;;;19.25;7.50;;;10.10;99.90;;;;;;5116838;28;20432;-63
2021/12/15 08:11:17;;;;;;;18.73;7.22;;;10.00;99.90;;;;;;5100772;28;20766;-64
2021/12/15 08:13:42;;;;;;;20.42;7.55;;;10.00;99.90;;;;;;5120546;27;20039;-63
2021/12/15 08:16:08;;;;;;;12.80;6.72;;;10.00;99.90;;;;;;5122970;27;21319;-63
2021/12/15 08:18:34;;;;;;;20.27;7.63;;;10.00;99.90;;;;;;5121372;27;20039;-63
2021/12/15 08:21:03;;;;;;;24.10;7.60;;;10.00;99.90;;;;;;5126215;27;20537;-63
2021/12/15 08:23:29;;;;;;;14.90;6.60;;;9.90;99.90;;;;;;5130105;27;20054;-63
2021/12/15 08:25:55;;;;;;;22.63;7.13;;;9.90;99.90;;;;;;5118684;27;20512;-63
2021/12/15 08:28:20;;;;;;;20.45;6.57;;;9.90;99.90;;;;;;5127300;28;20082;-63
2021/12/15 08:30:48;;;;;;;25.63;8.77;;;9.90;99.90;;;;;;5120723;28;20491;-63
2021/12/15 08:33:18;;;;;;;25.10;7.80;;;9.90;99.90;;;;;;5137691;27;20058;-63
2021/12/15 08:35:58;;;;;;;16.15;6.40;;;9.90;99.90;;;;;;5130295;27;20035;-63
2021/12/15 08:38:28;;;;;;;24.67;8.90;;;9.90;99.90;;;;;;5135702;27;20065;-63
2021/12/15 08:40:54;;;;;;;18.98;6.90;;;9.90;99.90;;;;;;5133473;27;20035;-63
2021/12/15 08:43:20;;;;;;;20.40;8.15;;;9.90;99.90;;;;;;5127391;27;20484;-63
2021/12/15 08:46:01;;;;;;;16.45;7.07;;;9.90;99.90;;;;;;5134228;27;20054;-63
2021/12/15 08:48:27;;;;;;;24.45;7.85;;;9.90;99.90;;;;;;5122862;27;20067;-63
2021/12/15 08:50:54;;;;;;;15.88;8.27;;;9.90;99.90;;;;;;5124386;28;20050;-64
2021/12/15 08:53:20;;;;;;;20.05;9.00;;;9.90;99.90;;;;;;5135702;27;20047;-64
2021/12/15 08:55:48;;;;;;;24.38;10.50;;;9.90;99.90;;;;;;5108400;28;20038;-63
2021/12/15 08:58:16;;;;;;;27.35;10.27;;;9.90;99.90;;;;;;5124274;27;20691;-63
2021/12/15 09:00:44;;;;;;;25.90;11.40;;;9.90;99.90;;;;;;5129730;27;20126;-63
2021/12/15 09:03:11;;;;;;;28.83;13.00;;;9.90;99.90;;;;;;5128142;27;20398;-63
2021/12/15 09:05:38;;;;;;;22.05;11.68;;;9.90;99.90;;;;;;5125814;27;20043;-62
2021/12/15 09:08:04;;;;;;;33.25;10.88;;;9.90;99.90;;;;;;5124658;27;20031;-63
2021/12/15 09:10:33;;;;;;;28.27;11.70;;;9.90;99.90;;;;;;5139559;27;20039;-63
2021/12/15 09:13:00;;;;;;;32.90;11.40;;;9.90;99.90;;;;;;5131322;27;20090;-63
2021/12/15 09:15:27;;;;;;;27.00;10.85;;;10.00;99.90;;;;;;5132115;27;20127;-63
2021/12/15 09:17:53;;;;;;;32.22;11.27;;;10.00;99.90;;;;;;5127996;27;20031;-63
2021/12/15 09:20:24;;;;;;;28.65;11.82;;;9.90;99.90;;;;;;5114204;27;20039;-63
2021/12/15 09:22:49;;;;;;;19.30;10.38;;;10.00;99.90;;;;;;5136973;27;20069;-63
2021/12/15 09:25:16;;;;;;;26.02;9.38;;;10.00;99.90;;;;;;5128681;27;20039;-62
2021/12/15 09:27:43;;;;;;;19.20;7.95;;;10.00;99.90;;;;;;5129950;27;20071;-63
2021/12/15 09:30:12;;;;;;;16.77;6.20;;;10.00;99.90;;;;;;5120237;27;20415;-63
2021/12/15 09:32:38;;;;;;;12.98;5.45;;;10.10;99.90;;;;;;5130026;27;20047;-62
2021/12/15 09:35:06;;;;;;;17.10;6.10;;;10.10;99.90;;;;;;5128960;27;20047;-63
2021/12/15 09:37:31;;;;;;;11.23;6.28;;;10.10;99.90;;;;;;5099777;27;20084;-63
2021/12/15 09:39:57;;;;;;;13.48;5.43;;;10.10;99.90;;;;;;5139597;27;20073;-63
2021/12/15 09:42:30;;;;;;;15.18;4.88;;;10.10;99.90;;;;;;5124756;27;20056;-63
2021/12/15 09:45:04;;;;;;;13.55;5.05;;;10.10;99.90;;;;;;5119802;27;20660;-63
2021/12/15 09:47:46;;;;;;;13.50;4.90;;;10.20;99.90;;;;;;5109355;27;20080;-62
2021/12/15 10:17:53;;;;;;;17.15;6.00;;;10.30;99.90;;;;;;5124527;27;20057;-63
2021/12/15 10:20:26;;;;;;;15.23;5.25;;;10.40;99.90;;;;;;5118331;27;20055;-63
2021/12/15 10:22:58;;;;;;;12.48;4.70;;;10.40;99.90;;;;;;5138822;27;20089;-63
2021/12/15 10:25:34;;;;;;;9.68;4.88;;;10.50;99.90;;;;;;5137064;27;20046;-63
2021/12/15 10:27:59;;;;;;;20.27;5.88;;;10.50;99.90;;;;;;5123204;27;20031;-63
2021/12/15 10:30:40;;;;;;;12.68;5.60;;;10.50;99.90;;;;;;5132331;27;20100;-63
2021/12/15 10:33:16;;;;;;;14.90;5.80;;;10.50;99.90;;;;;;5108086;27;20069;-63
2021/12/15 10:35:48;;;;;;;13.15;4.50;;;10.50;99.90;;;;;;5139492;27;20122;-63
2021/12/15 10:38:32;;;;;;;11.00;5.03;;;10.50;99.90;;;;;;5131330;27;20047;-63
2021/12/15 10:41:07;;;;;;;10.95;3.35;;;10.50;99.90;;;;;;5116066;27;20048;-62
2021/12/15 10:43:43;;;;;;;16.45;4.70;;;10.60;99.90;;;;;;5139970;27;20478;-63
2021/12/15 10:46:13;;;;;;;10.15;4.20;;;10.50;99.90;;;;;;5132114;27;20043;-63
2021/12/15 10:48:45;;;;;;;16.55;5.03;;;10.60;99.90;;;;;;5112284;27;20043;-63
2021/12/15 10:51:31;;;;;;;11.48;4.28;;;10.50;99.90;;;;;;5149856;27;20082;-63
2021/12/15 10:54:02;;;;;;;11.27;4.03;;;10.50;99.90;;;;;;5133476;27;20143;-63
2021/12/15 10:56:33;;;;;;;28.70;4.90;;;10.50;99.90;;;;;;5144578;27;20398;-63
2021/12/15 10:59:04;;;;;;;10.85;4.90;;;10.50;99.90;;;;;;5140007;27;20114;-63
2021/12/15 11:01:46;;;;;;;15.50;4.47;;;10.50;99.90;;;;;;5134853;27;20039;-63
2021/12/15 11:04:36;;;;;;;15.07;5.30;;;10.50;99.90;;;;;;5125643;27;20508;-63
2021/12/15 11:07:15;;;;;;;20.67;5.22;;;10.50;99.90;;;;;;5134722;27;20055;-63
2021/12/15 11:10:10;;;;;;;9.27;4.00;;;10.60;99.90;;;;;;5132195;27;20046;-63
2021/12/15 11:12:53;;;;;;;11.65;4.32;;;10.60;99.90;;;;;;5126080;27;20399;-63
2021/12/15 11:15:22;;;;;;;14.88;4.60;;;10.70;99.90;;;;;;5129718;27;20035;-63
2021/12/15 11:18:00;;;;;;;14.55;4.18;;;10.70;99.90;;;;;;5128558;27;20052;-63
2021/12/15 11:20:36;;;;;;;17.10;3.25;;;10.80;99.90;;;;;;5125297;27;20510;-63
2021/12/15 11:23:17;;;;;;;13.40;3.22;;;10.80;99.90;;;;;;5121405;27;20538;-63
2021/12/15 11:25:56;;;;;;;11.50;3.55;;;10.80;99.90;;;;;;5135725;27;20074;-63
2021/12/15 11:28:30;;;;;;;9.35;2.92;;;10.80;99.90;;;;;;5132518;27;20039;-63
2021/12/15 11:31:06;;;;;;;13.18;3.25;;;10.80;99.90;;;;;;5119642;27;20500;-63
2021/12/15 11:33:41;;;;;;;16.70;3.08;;;10.90;99.90;;;;;;5122412;27;20490;-63
2021/12/15 11:36:07;;;;;;;10.30;3.05;;;10.90;99.90;;;;;;5124583;27;20051;-62
2021/12/15 11:38:36;;;;;;;14.15;2.45;;;10.90;99.90;;;;;;5129348;27;20046;-63
2021/12/15 11:41:10;;;;;;;8.98;3.33;;;10.90;99.90;;;;;;5132605;27;20050;-63
2021/12/15 11:43:51;;;;;;;11.90;2.38;;;10.90;99.90;;;;;;5149849;27;20458;-63
2021/12/15 11:46:22;;;;;;;11.45;2.70;;;10.80;99.90;;;;;;5131813;27;20058;-63
2021/12/15 11:48:55;;;;;;;10.45;3.33;;;10.80;99.90;;;;;;5112459;27;20079;-63
2021/12/15 11:51:54;;;;;;;6.60;1.90;;;10.80;99.90;;;;;;5118186;27;20039;-63
2021/12/15 11:54:23;;;;;;;11.70;2.10;;;10.80;99.90;;;;;;5126327;27;20064;-63
2021/12/15 11:57:15;;;;;;;12.65;2.20;;;10.80;99.90;;;;;;5095996;27;20040;-62
2021/12/15 11:59:44;;;;;;;9.27;2.50;;;10.80;99.90;;;;;;5108716;27;20142;-63
2021/12/15 12:02:26;;;;;;;7.88;2.20;;;10.80;99.90;;;;;;5126152;27;20062;-63
2021/12/15 12:04:55;;;;;;;12.23;2.50;;;10.90;99.90;;;;;;5134404;27;20409;-63
2021/12/15 12:07:31;;;;;;;8.32;1.80;;;10.80;99.90;;;;;;5106347;27;20410;-63
2021/12/15 12:10:05;;;;;;;6.10;2.00;;;10.90;99.90;;;;;;5127248;27;20051;-63
2021/12/15 12:12:38;;;;;;;7.90;2.58;;;11.00;99.90;;;;;;5113229;28;20063;-63
2021/12/15 12:15:06;;;;;;;8.15;2.38;;;10.90;99.90;;;;;;5130337;27;20046;-63
2021/12/15 12:17:36;;;;;;;15.30;2.17;;;10.90;99.90;;;;;;5124292;28;20061;-63
2021/12/15 12:20:19;;;;;;;8.27;2.45;;;10.90;99.90;;;;;;5135859;27;20046;-63
2021/12/15 12:22:47;;;;;;;4.88;1.38;;;10.90;99.90;;;;;;5129616;27;20035;-63
2021/12/15 12:25:17;;;;;;;9.13;1.65;;;10.80;99.90;;;;;;5117529;27;20040;-63
2021/12/15 12:27:45;;;;;;;5.72;1.52;;;10.80;99.90;;;;;;5127800;27;20078;-63
2021/12/15 12:30:33;;;;;;;5.22;1.60;;;10.70;99.90;;;;;;5097133;27;20047;-63
2021/12/15 12:32:59;;;;;;;6.47;1.77;;;10.70;99.90;;;;;;5121270;27;20047;-63
2021/12/15 12:35:33;;;;;;;11.75;2.20;;;10.70;99.90;;;;;;5130806;27;20055;-63
2021/12/15 12:38:06;;;;;;;3.92;1.30;;;10.70;99.90;;;;;;5131903;27;20074;-63
2021/12/15 12:40:34;;;;;;;3.77;1.60;;;10.60;99.90;;;;;;5108443;27;20078;-63
2021/12/15 12:43:15;;;;;;;5.70;1.95;;;10.60;99.90;;;;;;5139738;27;20737;-63
2021/12/15 12:45:42;;;;;;;8.52;2.42;;;10.60;99.90;;;;;;5130248;27;20051;-63
2021/12/15 12:48:39;;;;;;;7.97;2.40;;;10.70;99.90;;;;;;5143728;27;20099;-63
2021/12/15 12:59:45;;;;;;;7.75;1.98;;;10.80;99.90;;;;;;5131144;27;20058;-63
2021/12/15 13:03:02;;;;;;;6.13;1.33;;;10.80;99.90;;;;;;5130699;27;20292;-63
2021/12/15 13:05:29;;;;;;;9.20;1.75;;;10.80;99.90;;;;;;5120849;27;20462;-63
2021/12/15 13:07:58;;;;;;;7.80;1.40;;;10.80;99.90;;;;;;5120144;27;20568;-64
2021/12/15 13:10:58;;;;;;;6.97;2.10;;;10.80;99.90;;;;;;5138213;27;20067;-64
2021/12/15 13:13:27;;;;;;;11.15;1.70;;;10.80;99.90;;;;;;5131324;27;20143;-63
2021/12/15 13:16:08;;;;;;;7.05;1.30;;;10.80;99.90;;;;;;5109689;27;20092;-64
2021/12/15 13:18:49;;;;;;;6.05;1.77;;;10.80;99.90;;;;;;5131936;27;20382;-64
2021/12/15 13:21:19;;;;;;;3.53;0.85;;;10.80;99.90;;;;;;5121491;27;20054;-64
2021/12/15 13:23:59;;;;;;;5.82;0.95;;;10.70;99.90;;;;;;5138080;27;20031;-63
2021/12/15 13:29:37;;;;;;;4.88;1.00;;;10.70;99.90;;;;;;5140621;27;20096;-63
2021/12/15 13:32:03;;;;;;;1.70;0.80;;;10.70;99.90;;;;;;5106331;27;20058;-63
2021/12/15 13:34:46;;;;;;;3.28;1.25;;;10.60;99.90;;;;;;5135460;27;20122;-63
2021/12/15 13:37:48;;;;;;;7.20;1.58;;;10.60;99.90;;;;;;5141007;27;20126;-63
2021/12/15 13:40:14;;;;;;;6.90;1.13;;;10.60;99.90;;;;;;5132726;27;20051;-63
2021/12/15 13:42:52;;;;;;;3.50;1.20;;;10.60;99.90;;;;;;5134523;27;20533;-64
2021/12/15 13:45:29;;;;;;;5.28;1.50;;;10.60;99.90;;;;;;5135045;27;20081;-63
2021/12/15 13:47:55;;;;;;;5.25;1.05;;;10.60;99.90;;;;;;5113053;27;20039;-64
2021/12/15 13:50:23;;;;;;;5.57;1.08;;;10.60;99.90;;;;;;5139647;27;20459;-63
2021/12/15 13:53:03;;;;;;;7.38;1.40;;;10.60;99.90;;;;;;5134129;27;20039;-64
2021/12/15 13:55:35;;;;;;;3.58;1.13;;;10.60;99.90;;;;;;5119557;27;20043;-64
2021/12/15 13:58:09;;;;;;;5.78;1.80;;;10.50;99.90;;;;;;5114300;27;20047;-64
2021/12/15 14:00:47;;;;;;;5.57;1.40;;;10.60;99.90;;;;;;5137338;27;20495;-64
2021/12/15 14:03:38;;;;;;;7.75;1.95;;;10.50;99.90;;;;;;5136581;27;20039;-64
2021/12/15 14:06:04;;;;;;;7.28;1.85;;;10.50;99.90;;;;;;5115947;27;20057;-64
2021/12/15 14:08:43;;;;;;;4.88;1.67;;;10.50;99.90;;;;;;5136434;27;20051;-64
2021/12/15 14:11:21;;;;;;;7.72;1.20;;;10.50;99.90;;;;;;5130104;27;20053;-63
2021/12/15 14:13:53;;;;;;;4.10;1.10;;;10.50;99.90;;;;;;5134176;27;20128;-64
2021/12/15 14:16:34;;;;;;;6.40;1.35;;;10.50;99.90;;;;;;5116144;27;20493;-64